Time;durP1;ratioP1;P1;durP2;ratioP2;P2;SDS_P1;SDS_P2;PMS_P1;PMS_P2;Temp;Humidity;BMP_temperature;BMP_pressure;BME280_temperature;BME280_humidity;BME280_pressure;Samples;Min_cycle;Max_cycle;Signal;HPM_P1;HPM_P2
2024/01/13 06:02:30;;;;;;;;;;;;;;;;;;5036576;23;19926;-47
2024/01/13 06:04:56;;;;;;;;;;;;;;;;;;4969586;28;19914;-47
2024/01/13 06:07:22;;;;;;;;;;;;;;;;;;4970936;28;19921;-45
2024/01/13 06:09:48;;;;;;;;;;;;;;;;;;4970888;28;19964;-45
2024/01/13 06:12:14;;;;;;;;;;;;;;;;;;4971333;28;19921;-45
2024/01/13 06:14:40;;;;;;;;;;;;;;;;;;4970990;28;19910;-49
2024/01/13 06:17:06;;;;;;;;;;;;;;;;;;4970774;28;19922;-45
2024/01/13 06:19:32;;;;;;;;;;;;;;;;;;4970938;28;19965;-46
2024/01/13 06:21:58;;;;;;;;;;;;;;;;;;4971377;28;19949;-48
2024/01/13 06:24:24;;;;;;;;;;;;;;;;;;4970187;28;20304;-45
2024/01/13 06:26:50;;;;;;;;;;;;;;;;;;4971207;28;19922;-45
2024/01/13 06:29:15;;;;;;;;;;;;;;;;;;4969897;28;20630;-47
2024/01/13 06:31:41;;;;;;;;;;;;;;;;;;4971852;28;19914;-45
2024/01/13 06:34:07;;;;;;;;;;;;;;;;;;4971364;28;19910;-44
2024/01/13 06:36:33;;;;;;;;;;;;;;;;;;4971340;28;20013;-47
2024/01/13 06:38:59;;;;;;;;;;;;;;;;;;4972262;28;20031;-45
2024/01/13 06:41:25;;;;;;;;;;;;;;;;;;4971418;28;19910;-45
2024/01/13 06:43:51;;;;;;;;;;;;;;;;;;4971833;28;19925;-45
2024/01/13 06:46:17;;;;;;;;;;;;;;;;;;4971487;28;20396;-46
2024/01/13 06:48:44;;;;;;;;;;;;;;;;;;4971098;28;19910;-46
2024/01/13 06:51:10;;;;;;;;;;;;;;;;;;4970915;28;19914;-45
2024/01/13 06:53:35;;;;;;;;;;;;;;;;;;4965289;28;20391;-47
2024/01/13 06:56:01;;;;;;;;;;;;;;;;;;4971796;28;20008;-44
2024/01/13 06:58:27;;;;;;;;;;;;;;;;;;4967372;28;19997;-45
2024/01/13 07:00:53;;;;;;;;;;;;;;;;;;4968422;28;20427;-45
2024/01/13 07:03:19;;;;;;;;;;;;;;;;;;4971614;28;19942;-47
2024/01/13 07:05:45;;;;;;;;;;;;;;;;;;4971794;28;19922;-45
2024/01/13 07:08:11;;;;;;;;;;;;;;;;;;4972299;28;19910;-45
2024/01/13 07:10:37;;;;;;;;;;;;;;;;;;4967763;28;20285;-45
2024/01/13 07:13:03;;;;;;;;;;;;;;;;;;4979261;28;19945;-44
2024/01/13 07:15:29;;;;;;;;;;;;;;;;;;4951980;28;19918;-44
2024/01/13 07:17:55;;;;;;;;;;;;;;;;;;4970115;28;20137;-46
2024/01/13 07:20:20;;;;;;;;;;;;;;;;;;4970814;28;19921;-46
2024/01/13 07:22:46;;;;;;;;;;;;;;;;;;4971657;28;19910;-44
2024/01/13 07:25:12;;;;;;;;;;;;;;;;;;4971438;28;20004;-46
2024/01/13 07:27:38;;;;;;;;;;;;;;;;;;4971491;28;19915;-45
2024/01/13 07:30:04;;;;;;;;;;;;;;;;;;4969879;28;20246;-45
2024/01/13 07:32:30;;;;;;;;;;;;;;;;;;4968170;28;20274;-46
2024/01/13 07:34:56;;;;;;;;;;;;;;;;;;4970525;28;19950;-45
2024/01/13 07:37:22;;;;;;;;;;;;;;;;;;4968758;28;19918;-41
2024/01/13 07:39:47;;;;;;;;;;;;;;;;;;4969814;28;19914;-41
2024/01/13 07:42:13;;;;;;;;;;;;;;;;;;4969532;28;20329;-42
2024/01/13 07:44:39;;;;;;;;;;;;;;;;;;4960952;28;20013;-42
2024/01/13 07:47:06;;;;;;;;;;;;;;;;;;4963318;28;19972;-42
2024/01/13 07:49:32;;;;;;;;;;;;;;;;;;4961344;28;20313;-42
2024/01/13 07:51:58;;;;;;;;;;;;;;;;;;4970984;28;19914;-43
2024/01/13 07:54:24;;;;;;;;;;;;;;;;;;4960695;28;19957;-42
2024/01/13 07:56:49;;;;;;;;;;;;;;;;;;4970223;28;20005;-42
2024/01/13 07:59:16;;;;;;;;;;;;;;;;;;4962796;28;19914;-42
2024/01/13 08:01:42;;;;;;;;;;;;;;;;;;4969693;28;19992;-42
2024/01/13 08:04:08;;;;;;;;;;;;;;;;;;4971547;28;20384;-42
2024/01/13 08:06:34;;;;;;;;;;;;;;;;;;4972013;28;19918;-42
2024/01/13 08:09:00;;;;;;;;;;;;;;;;;;4972182;28;19918;-42
2024/01/13 08:11:26;;;;;;;;;;;;;;;;;;4965349;28;19914;-42
2024/01/13 08:13:51;;;;;;;;;;;;;;;;;;4970932;28;19953;-43
2024/01/13 08:16:17;;;;;;;;;;;;;;;;;;4964843;28;19914;-42
2024/01/13 08:18:43;;;;;;;;;;;;;;;;;;4966342;28;19915;-43
2024/01/13 08:21:09;;;;;;;;;;;;;;;;;;4968281;28;19914;-43
2024/01/13 08:23:35;;;;;;;;;;;;;;;;;;4973922;28;19937;-43
2024/01/13 08:26:02;;;;;;;;;;;;;;;;;;4975204;28;19921;-42
2024/01/13 08:28:28;;;;;;;;;;;;;;;;;;4972189;28;20007;-43
2024/01/13 08:30:54;;;;;;;;;;;;;;;;;;4969361;28;20274;-43
2024/01/13 08:33:20;;;;;;;;;;;;;;;;;;4974191;28;19914;-43
2024/01/13 08:35:46;;;;;;;;;;;;;;;;;;4970741;28;20077;-42
2024/01/13 08:38:13;;;;;;;;;;;;;;;;;;4975183;28;19933;-44
2024/01/13 08:40:38;;;;;;;;;;;;;;;;;;4973884;28;19945;-43
2024/01/13 08:43:04;;;;;;;;;;;;;;;;;;4974894;28;19914;-42
2024/01/13 08:45:30;;;;;;;;;;;;;;;;;;4974824;28;19914;-44
2024/01/13 08:47:57;;;;;;;;;;;;;;;;;;4978924;28;20397;-43
2024/01/13 08:50:23;;;;;;;;;;;;;;;;;;4967142;28;19970;-43
2024/01/13 08:52:51;;;;;;;;;;;;;;;;;;4963770;28;20389;-43
2024/01/13 08:55:17;;;;;;;;;;;;;;;;;;4968742;28;20395;-43
2024/01/13 08:57:43;;;;;;;;;;;;;;;;;;4972987;28;19946;-42
2024/01/13 09:00:09;;;;;;;;;;;;;;;;;;4963411;28;19910;-43
2024/01/13 09:02:35;;;;;;;;;;;;;;;;;;4972679;28;19922;-44
2024/01/13 09:05:01;;;;;;;;;;;;;;;;;;4966453;28;19969;-43
2024/01/13 09:07:27;;;;;;;;;;;;;;;;;;4965025;28;20297;-43
2024/01/13 09:09:53;;;;;;;;;;;;;;;;;;4971389;28;19958;-43
2024/01/13 09:12:18;;;;;;;;;;;;;;;;;;4962595;28;20377;-43
2024/01/13 09:14:45;;;;;;;;;;;;;;;;;;4972802;28;19928;-44
2024/01/13 09:17:11;;;;;;;;;;;;;;;;;;4973206;28;19949;-42
2024/01/13 09:19:37;;;;;;;;;;;;;;;;;;4971161;28;20401;-44
2024/01/13 09:22:03;;;;;;;;;;;;;;;;;;4972407;28;19920;-42
2024/01/13 09:24:29;;;;;;;;;;;;;;;;;;4961695;28;19919;-42
2024/01/13 09:26:58;;;;;;;;;;;;;;;;;;4973289;28;19919;-42
2024/01/13 09:29:24;;;;;;;;;;;;;;;;;;4970650;28;19918;-42
2024/01/13 09:31:50;;;;;;;;;;;;;;;;;;4971451;28;19920;-42
2024/01/13 09:34:16;;;;;;;;;;;;;;;;;;4972020;28;19914;-43
2024/01/13 09:36:42;;;;;;;;;;;;;;;;;;4969692;28;19922;-43
2024/01/13 09:39:11;;;;;;;;;;;;;;;;;;4963665;28;19914;-42
2024/01/13 09:41:37;;;;;;;;;;;;;;;;;;4968678;28;19915;-42
2024/01/13 09:44:03;;;;;;;;;;;;;;;;;;4964243;28;19915;-43
2024/01/13 09:46:28;;;;;;;;;;;;;;;;;;4968522;28;19918;-42
2024/01/13 09:48:55;;;;;;;;;;;;;;;;;;4970449;28;20462;-41
2024/01/13 09:51:20;;;;;;;;;;;;;;;;;;4962769;28;19910;-42
2024/01/13 09:53:47;;;;;;;;;;;;;;;;;;4969777;28;19920;-42
2024/01/13 09:56:13;;;;;;;;;;;;;;;;;;4970556;28;19925;-43
2024/01/13 09:58:39;;;;;;;;;;;;;;;;;;4968740;28;19933;-42
2024/01/13 10:01:04;;;;;;;;;;;;;;;;;;4958611;28;20321;-42
2024/01/13 10:03:30;;;;;;;;;;;;;;;;;;4952019;28;19970;-42
2024/01/13 10:05:56;;;;;;;;;;;;;;;;;;4963993;28;20400;-43
2024/01/13 10:08:22;;;;;;;;;;;;;;;;;;4956133;28;19914;-43
2024/01/13 10:10:48;;;;;;;;;;;;;;;;;;4958667;28;19979;-45
2024/01/13 10:13:14;;;;;;;;;;;;;;;;;;4955572;28;19919;-43
2024/01/13 10:15:40;;;;;;;;;;;;;;;;;;4953086;28;19911;-43
2024/01/13 10:18:06;;;;;;;;;;;;;;;;;;4953359;28;19922;-43
2024/01/13 10:20:31;;;;;;;;;;;;;;;;;;4952928;28;19911;-43
2024/01/13 10:22:57;;;;;;;;;;;;;;;;;;4952769;28;19914;-43
2024/01/13 10:25:23;;;;;;;;;;;;;;;;;;4954797;28;19911;-45
2024/01/13 10:27:49;;;;;;;;;;;;;;;;;;4968876;28;19922;-43
2024/01/13 10:30:15;;;;;;;;;;;;;;;;;;4970480;28;19910;-44
2024/01/13 10:32:42;;;;;;;;;;;;;;;;;;4969454;28;19929;-43
2024/01/13 10:35:08;;;;;;;;;;;;;;;;;;4967010;28;19997;-43
2024/01/13 10:37:34;;;;;;;;;;;;;;;;;;4970777;28;19910;-43
2024/01/13 10:40:00;;;;;;;;;;;;;;;;;;4975927;28;19925;-41
2024/01/13 10:42:26;;;;;;;;;;;;;;;;;;4959921;28;20369;-42
2024/01/13 10:44:54;;;;;;;;;;;;;;;;;;4952465;28;20293;-41
2024/01/13 10:47:19;;;;;;;;;;;;;;;;;;4955543;28;20309;-42
2024/01/13 10:49:45;;;;;;;;;;;;;;;;;;4952219;28;19911;-41
2024/01/13 10:52:11;;;;;;;;;;;;;;;;;;4952435;28;19911;-41
2024/01/13 10:54:37;;;;;;;;;;;;;;;;;;4952497;28;19917;-42
2024/01/13 10:57:03;;;;;;;;;;;;;;;;;;4952291;28;20412;-44
2024/01/13 10:59:29;;;;;;;;;;;;;;;;;;4969236;28;19996;-44
2024/01/13 11:01:56;;;;;;;;;;;;;;;;;;4964079;28;19918;-43
2024/01/13 11:04:22;;;;;;;;;;;;;;;;;;4965983;28;19938;-44
2024/01/13 11:06:48;;;;;;;;;;;;;;;;;;4954740;28;20412;-43
2024/01/13 11:09:14;;;;;;;;;;;;;;;;;;4962268;28;19922;-43
2024/01/13 11:11:40;;;;;;;;;;;;;;;;;;4963898;28;19957;-42
2024/01/13 11:14:05;;;;;;;;;;;;;;;;;;4962250;28;19914;-43
2024/01/13 11:16:31;;;;;;;;;;;;;;;;;;4969352;28;19914;-43
2024/01/13 11:18:58;;;;;;;;;;;;;;;;;;4958214;28;19918;-43
2024/01/13 11:21:24;;;;;;;;;;;;;;;;;;4962962;28;20165;-43
2024/01/13 11:23:50;;;;;;;;;;;;;;;;;;4964867;28;20405;-43
2024/01/13 11:26:15;;;;;;;;;;;;;;;;;;4968964;28;19914;-43
2024/01/13 11:28:41;;;;;;;;;;;;;;;;;;4968073;28;19914;-43
2024/01/13 11:31:07;;;;;;;;;;;;;;;;;;4967397;28;19915;-43
2024/01/13 11:33:33;;;;;;;;;;;;;;;;;;4968759;28;19993;-43
2024/01/13 11:35:59;;;;;;;;;;;;;;;;;;4968056;28;19918;-43
2024/01/13 11:38:25;;;;;;;;;;;;;;;;;;4964105;28;20416;-42
2024/01/13 11:40:51;;;;;;;;;;;;;;;;;;4964868;28;19958;-44
2024/01/13 11:43:17;;;;;;;;;;;;;;;;;;4950612;28;20599;-44
2024/01/13 11:45:43;;;;;;;;;;;;;;;;;;4969982;28;19969;-44
2024/01/13 11:48:09;;;;;;;;;;;;;;;;;;4971635;28;19914;-43
2024/01/13 11:50:35;;;;;;;;;;;;;;;;;;4971649;28;19915;-44
2024/01/13 11:53:01;;;;;;;;;;;;;;;;;;4970877;28;19921;-44
2024/01/13 11:55:27;;;;;;;;;;;;;;;;;;4971122;28;19957;-43
2024/01/13 11:57:53;;;;;;;;;;;;;;;;;;4956226;28;19953;-43
2024/01/13 12:00:19;;;;;;;;;;;;;;;;;;4971790;28;19911;-43
2024/01/13 12:02:45;;;;;;;;;;;;;;;;;;4971951;28;19914;-44
2024/01/13 12:05:11;;;;;;;;;;;;;;;;;;4970893;28;19914;-44
2024/01/13 12:07:38;;;;;;;;;;;;;;;;;;4968164;28;19989;-44
2024/01/13 12:10:05;;;;;;;;;;;;;;;;;;4971835;28;19971;-43
2024/01/13 12:12:31;;;;;;;;;;;;;;;;;;4966257;28;20545;-45
2024/01/13 12:14:57;;;;;;;;;;;;;;;;;;4952727;28;19997;-43
2024/01/13 12:17:23;;;;;;;;;;;;;;;;;;4952765;28;19910;-43
2024/01/13 12:19:49;;;;;;;;;;;;;;;;;;4968925;28;19914;-43
2024/01/13 12:22:16;;;;;;;;;;;;;;;;;;4970754;28;19914;-44
2024/01/13 12:24:41;;;;;;;;;;;;;;;;;;4970731;28;19914;-43
2024/01/13 12:27:07;;;;;;;;;;;;;;;;;;4971244;28;19914;-44
2024/01/13 12:29:34;;;;;;;;;;;;;;;;;;4970385;28;19914;-43
2024/01/13 12:32:00;;;;;;;;;;;;;;;;;;4971585;28;19910;-45
2024/01/13 12:34:26;;;;;;;;;;;;;;;;;;4962786;28;19915;-43
2024/01/13 12:36:52;;;;;;;;;;;;;;;;;;4952695;28;19914;-43
2024/01/13 12:39:18;;;;;;;;;;;;;;;;;;4964843;28;19976;-44
2024/01/13 12:41:44;;;;;;;;;;;;;;;;;;4971144;28;19914;-44
2024/01/13 12:44:10;;;;;;;;;;;;;;;;;;4971350;28;19965;-43
2024/01/13 12:46:36;;;;;;;;;;;;;;;;;;4969798;28;19922;-44
2024/01/13 12:49:02;;;;;;;;;;;;;;;;;;4959828;28;19913;-44
2024/01/13 12:51:28;;;;;;;;;;;;;;;;;;4969627;28;20365;-46
2024/01/13 12:53:54;;;;;;;;;;;;;;;;;;4970081;28;19993;-44
2024/01/13 12:56:20;;;;;;;;;;;;;;;;;;4970733;28;19917;-44
2024/01/13 12:58:46;;;;;;;;;;;;;;;;;;4970198;28;19914;-43
2024/01/13 13:01:12;;;;;;;;;;;;;;;;;;4970839;28;19922;-43
2024/01/13 13:03:38;;;;;;;;;;;;;;;;;;4968314;28;19969;-42
2024/01/13 13:06:03;;;;;;;;;;;;;;;;;;4969482;28;19926;-44
2024/01/13 13:08:30;;;;;;;;;;;;;;;;;;4970402;28;19980;-45
2024/01/13 13:10:56;;;;;;;;;;;;;;;;;;4970223;28;19937;-45
2024/01/13 13:13:22;;;;;;;;;;;;;;;;;;4965183;28;19918;-45
2024/01/13 13:15:48;;;;;;;;;;;;;;;;;;4969242;28;19921;-44
2024/01/13 13:18:14;;;;;;;;;;;;;;;;;;4969963;28;19922;-43
2024/01/13 13:20:40;;;;;;;;;;;;;;;;;;4969384;28;19910;-45
2024/01/13 13:23:07;;;;;;;;;;;;;;;;;;4968338;28;20293;-45
2024/01/13 13:25:35;;;;;;;;;;;;;;;;;;4970287;28;19918;-43
2024/01/13 13:28:01;;;;;;;;;;;;;;;;;;4970061;28;19914;-42
2024/01/13 13:30:27;;;;;;;;;;;;;;;;;;4969164;28;19914;-46
2024/01/13 13:32:53;;;;;;;;;;;;;;;;;;4969063;28;20394;-42
2024/01/13 13:35:19;;;;;;;;;;;;;;;;;;4967819;28;19914;-43
2024/01/13 13:37:48;;;;;;;;;;;;;;;;;;4968878;28;20820;-42
2024/01/13 13:40:14;;;;;;;;;;;;;;;;;;4969160;28;19918;-43
2024/01/13 13:42:40;;;;;;;;;;;;;;;;;;4969340;28;20388;-43
2024/01/13 13:45:06;;;;;;;;;;;;;;;;;;4964238;28;19969;-43
2024/01/13 13:47:32;;;;;;;;;;;;;;;;;;4966078;28;20337;-43
2024/01/13 13:49:58;;;;;;;;;;;;;;;;;;4956711;28;19914;-44
2024/01/13 13:52:23;;;;;;;;;;;;;;;;;;4963050;28;20396;-43
2024/01/13 13:54:49;;;;;;;;;;;;;;;;;;4959391;28;20141;-42
2024/01/13 13:57:15;;;;;;;;;;;;;;;;;;4956592;28;19989;-45
2024/01/13 13:59:41;;;;;;;;;;;;;;;;;;4948726;28;19927;-45
2024/01/13 14:02:07;;;;;;;;;;;;;;;;;;4953185;28;19918;-43
2024/01/13 14:04:33;;;;;;;;;;;;;;;;;;4949830;28;20408;-46
2024/01/13 14:06:59;;;;;;;;;;;;;;;;;;4947431;28;19914;-41
2024/01/13 14:09:25;;;;;;;;;;;;;;;;;;4959334;28;19968;-43
2024/01/13 14:11:51;;;;;;;;;;;;;;;;;;4965033;28;19934;-43
2024/01/13 14:14:17;;;;;;;;;;;;;;;;;;4953582;28;20425;-43
2024/01/13 14:16:43;;;;;;;;;;;;;;;;;;4963670;28;19964;-42
2024/01/13 14:19:09;;;;;;;;;;;;;;;;;;4965923;28;19921;-44
2024/01/13 14:21:35;;;;;;;;;;;;;;;;;;4964165;28;20050;-43
2024/01/13 14:24:01;;;;;;;;;;;;;;;;;;4956131;28;19918;-43
2024/01/13 14:26:27;;;;;;;;;;;;;;;;;;4968424;28;19919;-44
2024/01/13 14:28:53;;;;;;;;;;;;;;;;;;4961961;28;19918;-42
2024/01/13 14:31:18;;;;;;;;;;;;;;;;;;4958497;28;20366;-43
2024/01/13 14:33:44;;;;;;;;;;;;;;;;;;4961330;28;20420;-41
2024/01/13 14:36:10;;;;;;;;;;;;;;;;;;4964782;28;19910;-44
2024/01/13 14:38:36;;;;;;;;;;;;;;;;;;4963650;28;19921;-42
2024/01/13 14:41:03;;;;;;;;;;;;;;;;;;4960315;28;19936;-43
2024/01/13 14:43:29;;;;;;;;;;;;;;;;;;4959000;28;19914;-44
2024/01/13 14:45:55;;;;;;;;;;;;;;;;;;4961159;28;20239;-43
2024/01/13 14:48:21;;;;;;;;;;;;;;;;;;4962315;28;19941;-41
2024/01/13 14:50:47;;;;;;;;;;;;;;;;;;4960518;28;19914;-43
2024/01/13 14:53:12;;;;;;;;;;;;;;;;;;4964628;28;19930;-41
2024/01/13 14:55:38;;;;;;;;;;;;;;;;;;4964259;28;20008;-42
2024/01/13 14:58:04;;;;;;;;;;;;;;;;;;4962976;28;19918;-42
2024/01/13 15:00:30;;;;;;;;;;;;;;;;;;4947573;28;19934;-41
2024/01/13 15:02:56;;;;;;;;;;;;;;;;;;4961945;28;20012;-43
2024/01/13 15:05:22;;;;;;;;;;;;;;;;;;4963926;28;20197;-45
2024/01/13 15:07:51;;;;;;;;;;;;;;;;;;4949134;28;19997;-42
2024/01/13 15:10:17;;;;;;;;;;;;;;;;;;4966052;28;19918;-45
2024/01/13 15:12:43;;;;;;;;;;;;;;;;;;4958843;28;19918;-43
2024/01/13 15:15:09;;;;;;;;;;;;;;;;;;4961275;28;19969;-44
2024/01/13 15:17:35;;;;;;;;;;;;;;;;;;4961532;28;20305;-48
2024/01/13 15:20:01;;;;;;;;;;;;;;;;;;4961258;28;19985;-43
2024/01/13 15:22:27;;;;;;;;;;;;;;;;;;4969120;28;19958;-41
2024/01/13 15:24:53;;;;;;;;;;;;;;;;;;4968279;28;19918;-43
2024/01/13 15:27:20;;;;;;;;;;;;;;;;;;4965702;28;20361;-41
2024/01/13 15:29:46;;;;;;;;;;;;;;;;;;4981935;28;19915;-44
2024/01/13 15:32:12;;;;;;;;;;;;;;;;;;4969200;28;19946;-43
2024/01/13 15:34:38;;;;;;;;;;;;;;;;;;4965454;28;20396;-43
2024/01/13 15:37:04;;;;;;;;;;;;;;;;;;4959537;28;19929;-42
2024/01/13 15:39:30;;;;;;;;;;;;;;;;;;4969169;28;19929;-42
2024/01/13 15:41:56;;;;;;;;;;;;;;;;;;4968538;28;19911;-42
2024/01/13 15:44:22;;;;;;;;;;;;;;;;;;4968171;28;20053;-42
2024/01/13 15:46:47;;;;;;;;;;;;;;;;;;4961099;28;19918;-43
2024/01/13 15:49:13;;;;;;;;;;;;;;;;;;4982095;28;19917;-43
2024/01/13 15:51:39;;;;;;;;;;;;;;;;;;4960062;28;19962;-42
2024/01/13 15:54:07;;;;;;;;;;;;;;;;;;4970921;28;20365;-43
2024/01/13 15:56:33;;;;;;;;;;;;;;;;;;4970766;28;19968;-42
2024/01/13 15:58:58;;;;;;;;;;;;;;;;;;4969606;28;20376;-42
2024/01/13 16:01:26;;;;;;;;;;;;;;;;;;4968523;28;19928;-42
2024/01/13 16:03:52;;;;;;;;;;;;;;;;;;4964593;28;19919;-42
2024/01/13 16:06:18;;;;;;;;;;;;;;;;;;4958755;28;19946;-43
2024/01/13 16:08:44;;;;;;;;;;;;;;;;;;4970350;28;19964;-42
2024/01/13 16:11:10;;;;;;;;;;;;;;;;;;4966380;28;20297;-42
2024/01/13 16:13:36;;;;;;;;;;;;;;;;;;4969264;28;19914;-42
2024/01/13 16:16:02;;;;;;;;;;;;;;;;;;4972715;28;19916;-43
2024/01/13 16:18:28;;;;;;;;;;;;;;;;;;4970572;28;20428;-42
2024/01/13 16:20:53;;;;;;;;;;;;;;;;;;4970048;28;20403;-43
2024/01/13 16:23:19;;;;;;;;;;;;;;;;;;4968776;28;19914;-44
2024/01/13 16:25:45;;;;;;;;;;;;;;;;;;4967787;28;19918;-42
2024/01/13 16:28:11;;;;;;;;;;;;;;;;;;4970778;28;19929;-41
2024/01/13 16:30:37;;;;;;;;;;;;;;;;;;4970817;28;19930;-42
2024/01/13 16:33:03;;;;;;;;;;;;;;;;;;4964047;28;19929;-42
2024/01/13 16:35:30;;;;;;;;;;;;;;;;;;4970375;28;19921;-42
2024/01/13 16:37:56;;;;;;;;;;;;;;;;;;4969258;28;20451;-42
2024/01/13 16:40:21;;;;;;;;;;;;;;;;;;4964821;28;20001;-43
2024/01/13 16:42:47;;;;;;;;;;;;;;;;;;4984480;28;19997;-43
2024/01/13 16:45:14;;;;;;;;;;;;;;;;;;4970302;28;19915;-42
2024/01/13 16:47:40;;;;;;;;;;;;;;;;;;4964481;28;20009;-43
2024/01/13 16:50:06;;;;;;;;;;;;;;;;;;4959429;28;19914;-42
2024/01/13 16:52:32;;;;;;;;;;;;;;;;;;4957868;28;20397;-43
2024/01/13 16:54:58;;;;;;;;;;;;;;;;;;4968337;28;19914;-45
2024/01/13 16:57:24;;;;;;;;;;;;;;;;;;4967392;28;20412;-44
2024/01/13 16:59:50;;;;;;;;;;;;;;;;;;4968524;28;19914;-44
2024/01/13 17:02:16;;;;;;;;;;;;;;;;;;4960787;28;20195;-45
2024/01/13 17:04:42;;;;;;;;;;;;;;;;;;4953333;28;19911;-44
2024/01/13 17:07:08;;;;;;;;;;;;;;;;;;4964437;28;20381;-44
2024/01/13 17:09:34;;;;;;;;;;;;;;;;;;4967294;28;19918;-45
2024/01/13 17:12:00;;;;;;;;;;;;;;;;;;4966113;28;19968;-45
2024/01/13 17:14:27;;;;;;;;;;;;;;;;;;4967465;28;19961;-44
2024/01/13 17:16:53;;;;;;;;;;;;;;;;;;4967335;28;19918;-44
2024/01/13 17:19:19;;;;;;;;;;;;;;;;;;4967743;28;19920;-45
2024/01/13 17:21:45;;;;;;;;;;;;;;;;;;4965488;28;19914;-44
2024/01/13 17:24:11;;;;;;;;;;;;;;;;;;4967980;28;19925;-44
2024/01/13 17:26:37;;;;;;;;;;;;;;;;;;4964580;28;19924;-44
2024/01/13 17:29:03;;;;;;;;;;;;;;;;;;4981610;28;19915;-43
2024/01/13 17:31:29;;;;;;;;;;;;;;;;;;4968582;28;19914;-44
2024/01/13 17:33:55;;;;;;;;;;;;;;;;;;4964194;28;19915;-44
2024/01/13 17:36:20;;;;;;;;;;;;;;;;;;4957235;28;19926;-44
2024/01/13 17:38:46;;;;;;;;;;;;;;;;;;4965365;28;20424;-44
2024/01/13 17:41:12;;;;;;;;;;;;;;;;;;4961543;28;19916;-46
2024/01/13 17:43:38;;;;;;;;;;;;;;;;;;4968341;28;20320;-44
2024/01/13 17:46:04;;;;;;;;;;;;;;;;;;4960131;28;19922;-44
2024/01/13 17:48:30;;;;;;;;;;;;;;;;;;4950121;28;19910;-46
2024/01/13 17:50:56;;;;;;;;;;;;;;;;;;4949678;28;19917;-44
2024/01/13 17:53:22;;;;;;;;;;;;;;;;;;4949429;28;19917;-44
2024/01/13 17:55:48;;;;;;;;;;;;;;;;;;4951642;28;19996;-44
2024/01/13 17:58:14;;;;;;;;;;;;;;;;;;4949172;29;19914;-44
2024/01/13 18:00:40;;;;;;;;;;;;;;;;;;4956159;28;20382;-43
2024/01/13 18:03:13;;;;;;;;;;;;;;;;;;5071769;28;19917;-42
2024/01/13 18:05:39;;;;;;;;;;;;;;;;;;5095702;28;20425;-42
2024/01/13 18:08:05;;;;;;;;;;;;;;;;;;5063207;28;20007;-43
2024/01/13 18:10:30;;;;;;;;;;;;;;;;;;5069924;28;19935;-42
2024/01/13 18:12:56;;;;;;;;;;;;;;;;;;5083795;28;19916;-42
2024/01/13 18:15:23;;;;;;;;;;;;;;;;;;5067422;28;19920;-44
2024/01/13 18:17:50;;;;;;;;;;;;;;;;;;5068160;28;20408;-41
2024/01/13 18:20:16;;;;;;;;;;;;;;;;;;5080103;28;19912;-44
2024/01/13 18:22:41;;;;;;;;;;;;;;;;;;5063122;28;19917;-42
2024/01/13 18:25:07;;;;;;;;;;;;;;;;;;5063141;28;19971;-41
2024/01/13 18:27:33;;;;;;;;;;;;;;;;;;5062450;28;19946;-40
2024/01/13 18:29:59;;;;;;;;;;;;;;;;;;5081280;28;20314;-42
2024/01/13 18:32:25;;;;;;;;;;;;;;;;;;5069355;28;19921;-42
2024/01/13 18:34:52;;;;;;;;;;;;;;;;;;5065909;28;20387;-42
2024/01/13 18:37:17;;;;;;;;;;;;;;;;;;5070734;28;19920;-42
2024/01/13 18:39:43;;;;;;;;;;;;;;;;;;5069357;28;19912;-42
2024/01/13 18:42:09;;;;;;;;;;;;;;;;;;5083046;28;20268;-42
2024/01/13 18:44:35;;;;;;;;;;;;;;;;;;5082162;28;19926;-41
2024/01/13 18:47:01;;;;;;;;;;;;;;;;;;5074033;28;19924;-43
2024/01/13 18:49:27;;;;;;;;;;;;;;;;;;5062930;28;19909;-43
2024/01/13 18:51:53;;;;;;;;;;;;;;;;;;5074742;28;19916;-43
2024/01/13 18:54:19;;;;;;;;;;;;;;;;;;5082120;28;19916;-43
2024/01/13 18:56:45;;;;;;;;;;;;;;;;;;5078817;28;20452;-42
2024/01/13 18:59:10;;;;;;;;;;;;;;;;;;5078297;28;19912;-42
2024/01/13 19:01:36;;;;;;;;;;;;;;;;;;5071834;28;20438;-44
2024/01/13 19:04:03;;;;;;;;;;;;;;;;;;5072054;28;19912;-41
2024/01/13 19:06:29;;;;;;;;;;;;;;;;;;5092369;28;19999;-42
2024/01/13 19:08:55;;;;;;;;;;;;;;;;;;5067763;28;20362;-42
2024/01/13 19:11:21;;;;;;;;;;;;;;;;;;5069336;28;19913;-43
2024/01/13 19:13:47;;;;;;;;;;;;;;;;;;5065334;28;19979;-44
2024/01/13 19:16:13;;;;;;;;;;;;;;;;;;5057415;28;19913;-42
2024/01/13 19:18:40;;;;;;;;;;;;;;;;;;5063132;28;20466;-42
2024/01/13 19:21:05;;;;;;;;;;;;;;;;;;5068443;28;19994;-44
2024/01/13 19:23:31;;;;;;;;;;;;;;;;;;5069575;28;20000;-42
2024/01/13 19:25:58;;;;;;;;;;;;;;;;;;5069069;28;19908;-41
2024/01/13 19:28:24;;;;;;;;;;;;;;;;;;5067871;28;19913;-42
2024/01/13 19:30:50;;;;;;;;;;;;;;;;;;5066545;28;19912;-43
2024/01/13 19:33:16;;;;;;;;;;;;;;;;;;5067141;28;19958;-42
2024/01/13 19:35:42;;;;;;;;;;;;;;;;;;5066134;28;19927;-44
2024/01/13 19:38:08;;;;;;;;;;;;;;;;;;5061458;28;20288;-42
2024/01/13 19:40:34;;;;;;;;;;;;;;;;;;5062898;28;19913;-42
2024/01/13 19:43:00;;;;;;;;;;;;;;;;;;5065955;28;20414;-43
2024/01/13 19:45:25;;;;;;;;;;;;;;;;;;5067231;28;19924;-42
2024/01/13 19:47:51;;;;;;;;;;;;;;;;;;5068666;28;20325;-41
2024/01/13 19:50:17;;;;;;;;;;;;;;;;;;5065188;28;19919;-43
2024/01/13 19:52:43;;;;;;;;;;;;;;;;;;5066410;28;20433;-42
2024/01/13 19:55:09;;;;;;;;;;;;;;;;;;5065316;28;19921;-41
2024/01/13 19:57:35;;;;;;;;;;;;;;;;;;5047930;28;20058;-43
2024/01/13 20:00:04;;;;;;;;;;;;;;;;;;5056832;28;20707;-43
2024/01/13 20:02:30;;;;;;;;;;;;;;;;;;5068714;28;19916;-42
2024/01/13 20:04:56;;;;;;;;;;;;;;;;;;5067468;28;19916;-42
2024/01/13 20:07:22;;;;;;;;;;;;;;;;;;5048603;28;20398;-41
2024/01/13 20:09:47;;;;;;;;;;;;;;;;;;5054708;28;20390;-42
2024/01/13 20:12:13;;;;;;;;;;;;;;;;;;5060532;28;19955;-44
2024/01/13 20:14:39;;;;;;;;;;;;;;;;;;5067917;28;19909;-44
2024/01/13 20:17:05;;;;;;;;;;;;;;;;;;5067705;28;19969;-44
2024/01/13 20:19:31;;;;;;;;;;;;;;;;;;5063479;28;20426;-44
2024/01/13 20:21:57;;;;;;;;;;;;;;;;;;5092187;28;19920;-44
2024/01/13 20:24:23;;;;;;;;;;;;;;;;;;5065362;28;20315;-44
2024/01/13 20:26:50;;;;;;;;;;;;;;;;;;5066975;28;20033;-44
2024/01/13 20:29:16;;;;;;;;;;;;;;;;;;5063254;28;20327;-45
2024/01/13 20:31:42;;;;;;;;;;;;;;;;;;5059996;28;19958;-44
2024/01/13 20:34:08;;;;;;;;;;;;;;;;;;5065119;28;19919;-44
2024/01/13 20:36:34;;;;;;;;;;;;;;;;;;5048058;28;19996;-44
2024/01/13 20:39:00;;;;;;;;;;;;;;;;;;5064659;28;20379;-44
2024/01/13 20:41:25;;;;;;;;;;;;;;;;;;5047381;28;19912;-44
2024/01/13 20:43:54;;;;;;;;;;;;;;;;;;5047179;28;19919;-44
2024/01/13 20:46:20;;;;;;;;;;;;;;;;;;5065120;28;19912;-45
2024/01/13 20:48:46;;;;;;;;;;;;;;;;;;5057190;28;19936;-44
2024/01/13 20:51:12;;;;;;;;;;;;;;;;;;5053604;28;20012;-45
2024/01/13 20:53:38;;;;;;;;;;;;;;;;;;5066243;28;20007;-45
2024/01/13 20:56:04;;;;;;;;;;;;;;;;;;5049534;28;19916;-44
2024/01/13 20:58:30;;;;;;;;;;;;;;;;;;5047805;28;19909;-44
2024/01/13 21:00:57;;;;;;;;;;;;;;;;;;5060833;28;20011;-44
2024/01/13 21:03:23;;;;;;;;;;;;;;;;;;5065950;28;19908;-44
2024/01/13 21:05:48;;;;;;;;;;;;;;;;;;5061472;28;20405;-44
2024/01/13 21:08:15;;;;;;;;;;;;;;;;;;5061467;28;19916;-44
2024/01/13 21:10:42;;;;;;;;;;;;;;;;;;5046128;28;19913;-44
2024/01/13 21:13:08;;;;;;;;;;;;;;;;;;5043992;28;19913;-43
2024/01/13 21:15:34;;;;;;;;;;;;;;;;;;5047653;28;20007;-44
2024/01/13 21:18:00;;;;;;;;;;;;;;;;;;5050994;28;19913;-45
2024/01/13 21:20:26;;;;;;;;;;;;;;;;;;5078136;28;19912;-45
2024/01/13 21:22:52;;;;;;;;;;;;;;;;;;5046028;28;19952;-44
2024/01/13 21:25:18;;;;;;;;;;;;;;;;;;5066812;28;19946;-44
2024/01/13 21:27:44;;;;;;;;;;;;;;;;;;5063831;28;19956;-44
2024/01/13 21:30:11;;;;;;;;;;;;;;;;;;5064897;28;19920;-44
2024/01/13 21:32:37;;;;;;;;;;;;;;;;;;5062432;28;19913;-44
2024/01/13 21:35:04;;;;;;;;;;;;;;;;;;5079000;28;19915;-44
2024/01/13 21:37:30;;;;;;;;;;;;;;;;;;5045891;28;19916;-44
2024/01/13 21:39:56;;;;;;;;;;;;;;;;;;5089393;28;19970;-44
2024/01/13 21:42:22;;;;;;;;;;;;;;;;;;5050559;28;19924;-44
2024/01/13 21:44:47;;;;;;;;;;;;;;;;;;5064447;28;19913;-44
2024/01/13 21:47:13;;;;;;;;;;;;;;;;;;5066177;28;19908;-45
2024/01/13 21:49:39;;;;;;;;;;;;;;;;;;5065282;28;19956;-45
2024/01/13 21:52:06;;;;;;;;;;;;;;;;;;5065147;28;20355;-45
2024/01/13 21:54:32;;;;;;;;;;;;;;;;;;5064699;28;19951;-45
2024/01/13 21:57:00;;;;;;;;;;;;;;;;;;5064355;28;19952;-45
2024/01/13 21:59:26;;;;;;;;;;;;;;;;;;5066457;28;20338;-45
2024/01/13 22:01:52;;;;;;;;;;;;;;;;;;5065696;28;19920;-46
2024/01/13 22:04:19;;;;;;;;;;;;;;;;;;5049938;28;19917;-44
2024/01/13 22:06:45;;;;;;;;;;;;;;;;;;5063661;28;19962;-43
2024/01/13 22:09:11;;;;;;;;;;;;;;;;;;5066498;28;19951;-44
2024/01/13 22:11:37;;;;;;;;;;;;;;;;;;5066140;28;19915;-44
2024/01/13 22:14:04;;;;;;;;;;;;;;;;;;5064331;28;19935;-46
2024/01/13 22:16:30;;;;;;;;;;;;;;;;;;5060566;28;20395;-44
2024/01/13 22:18:56;;;;;;;;;;;;;;;;;;5051320;28;19912;-44
2024/01/13 22:21:22;;;;;;;;;;;;;;;;;;5045861;28;19913;-45
2024/01/13 22:23:48;;;;;;;;;;;;;;;;;;5045869;28;19909;-44
2024/01/13 22:26:14;;;;;;;;;;;;;;;;;;5045764;28;20512;-45
2024/01/13 22:28:40;;;;;;;;;;;;;;;;;;5064849;28;20433;-43
2024/01/13 22:31:05;;;;;;;;;;;;;;;;;;5066607;28;19954;-44
2024/01/13 22:33:32;;;;;;;;;;;;;;;;;;5063964;28;19958;-45
2024/01/13 22:35:58;;;;;;;;;;;;;;;;;;5065310;28;20312;-44
2024/01/13 22:38:24;;;;;;;;;;;;;;;;;;5047258;28;19936;-45